CYFBCYRT

Guest
Details From CYFB - Iqaluit
To CYRT - RANKIN INLET
Flight Number -
Tags decoded
Created
Modified
Stats Distance 641 nm / 1,187 km
Max Altitude 0 ft / 0 m
Waypoints 5
Social Downloads 0
Likes 0
Share VATSIM

Download

Looking for another format? Having issues loading an existing format? Contact us
Advertisement - Login to hide

Notes

Requested: CYFB YTE J540 YZS RR4 YCS CYRT

Route

CYFB YTE J540 YZS RR4 YCS CYRT

ID Type Via Altitude Latitude Longitude Leg Dist Tot Dist Heading (true) Name
O CYFB APT - 0 ft / 0 m 63.75657˚ -68.55606˚ - 0 nm - Iqaluit
YTE NDB - 0 ft / 0 m 64.22861˚ -76.52806˚ 211 nm 211 nm 281° / 274° CAPE DORSET NDB
YZS NDB J540 (AWY-HI) 0 ft / 0 m 64.14850˚ -83.30475˚ 177 nm 388 nm 271° / 265° CORAL HARBOUR NDB
YCS NDB RR4 (AWY-LO) 0 ft / 0 m 63.33833˚ -90.73000˚ 203 nm 591 nm 259° / 253° CHESTERFIELD INLE NDB
O CYRT APT - 0 ft / 0 m 62.81139˚ -92.11584˚ 49 nm 641 nm 231° / 229° RANKIN INLET

Altitude Profile

Advertisement - Login to hide

Weather


0- 5 10 15 20 25 30 35+ Temperature / ° C

Clouds and Precipitation
Forecast for 2017-12-16 18:00 UTC. Updated 2 hours ago

Ground ~20,000 ft ~40,000 ft Winds

CYFB

Details ICAO CYFB (YFB)
Name Iqaluit
Region Canada
Timezone America/Iqaluit (UTC-5.0)
Stats Elevation 110 ft / 34 m (AMSL)
Location 63.756565° -68.556058°
Runways 1
Magnetic Variation 27.541° W

METAR

CYFB 161700Z 33011KT 30SM BKN033 BKN056 M07/M10 A2920 RMK SC5SC2 SLP891

Decode

TAF

TAF CYFB 161138Z 1612/1712 33010KT P6SM -SN OVC060 TEMPO 1612/1624 3SM -SN OVC020 FM170000 33010KT P6SM BKN050 FM170800 32015KT 3SM -SN OVC010 RMK NXT FCST BY 161800Z

Decode

Departure Runways

ID Width Length Bearing (true) Bearing (mag) Surface Threshold Offset Overrun Length
17 200 ft / 61 m 8,605 ft / 2,623 m 135.58° 163.12° Asphalt 0 ft / 0 m 210 ft / 64 m
35 200 ft / 61 m 8,605 ft / 2,623 m 315.62° 343.16° Asphalt 0 ft / 0 m 243 ft / 74 m

CYRT

Details ICAO CYRT (YRT)
Name RANKIN INLET
Region Canada
Timezone America/Rankin_Inlet (UTC-6.0)
Stats Elevation 94 ft / 29 m (AMSL)
Location 62.811388° -92.115836°
Runways 1
Magnetic Variation 6.847° W

METAR

CYRT 161700Z 34012KT 15SM IC DRSN FEW010 FEW150 SCT270 M30/M33 A2985 RMK SC1AC1CI2 SC TR SLP116

Decode

TAF

TAF CYRT 161138Z 1612/1624 30010KT P6SM IC FEW050 TEMPO 1612/1624 4SM -SN BKN050 RMK NXT FCST BY 161800Z

Decode

Destination Runways

ID Width Length Bearing (true) Bearing (mag) Surface Threshold Offset Overrun Length
13T 150 ft / 46 m 5,982 ft / 1,823 m 129.03° 135.88° Asphalt 0 ft / 0 m 0 ft / 0 m
31T 150 ft / 46 m 5,982 ft / 1,823 m 309.05° 315.90° Asphalt 0 ft / 0 m 0 ft / 0 m

Popular Alternatives